Time;durP1;ratioP1;P1;durP2;ratioP2;P2;SDS_P1;SDS_P2;PMS_P1;PMS_P2;Temp;Humidity;BMP_temperature;BMP_pressure;BME280_temperature;BME280_humidity;BME280_pressure;Samples;Min_cycle;Max_cycle;Signal;HPM_P1;HPM_P2
2024/02/26 00:01:01;;;;;;;895.47;843.70;;;8.70;43.10;;;;;;5044151;28;20171;-73
2024/02/26 00:03:27;;;;;;;925.90;873.60;;;8.80;45.30;;;;;;5045463;28;20444;-75
2024/02/26 00:05:53;;;;;;;915.80;862.60;;;8.70;46.90;;;;;;5044536;28;20447;-75
2024/02/26 00:08:18;;;;;;;918.30;865.33;;;8.70;48.00;;;;;;5043775;28;20245;-74
2024/02/26 00:10:44;;;;;;;938.40;884.53;;;8.70;48.40;;;;;;5037160;28;20173;-73
2024/02/26 00:13:09;;;;;;;894.27;843.37;;;8.70;50.00;;;;;;5033249;28;20169;-72
2024/02/26 00:15:35;;;;;;;902.53;850.63;;;8.70;48.60;;;;;;5033564;28;20177;-72
2024/02/26 00:18:01;;;;;;;919.63;866.33;;;8.30;50.50;;;;;;5032250;28;20664;-73
2024/02/26 00:20:27;;;;;;;885.83;834.63;;;8.60;50.70;;;;;;5032600;28;20710;-72
2024/02/26 00:22:52;;;;;;;876.80;826.30;;;8.70;51.40;;;;;;5033282;28;20410;-71
2024/02/26 00:25:18;;;;;;;900.40;848.50;;;8.60;51.50;;;;;;5033143;28;20174;-72
2024/02/26 00:27:44;;;;;;;875.23;826.33;;;8.50;54.70;;;;;;5033309;28;20189;-71
2024/02/26 00:30:10;;;;;;;897.47;846.17;;;8.50;57.20;;;;;;5037415;28;20196;-75
2024/02/26 00:32:35;;;;;;;911.67;858.40;;;8.50;59.00;;;;;;5044002;28;20421;-74
2024/02/26 00:35:01;;;;;;;915.47;862.90;;;8.50;61.10;;;;;;5041829;28;20404;-75
2024/02/26 00:37:27;;;;;;;926.37;873.57;;;8.50;61.40;;;;;;5041631;28;20638;-74
2024/02/26 00:39:53;;;;;;;923.07;869.17;;;8.50;60.90;;;;;;5041345;28;20171;-73
2024/02/26 00:42:19;;;;;;;915.10;861.80;;;8.50;62.00;;;;;;5037726;28;20242;-72
2024/02/26 00:44:45;;;;;;;937.20;883.20;;;8.50;63.70;;;;;;5033046;28;20412;-72
2024/02/26 00:47:10;;;;;;;934.80;880.73;;;8.50;64.60;;;;;;5032845;28;20677;-71
2024/02/26 00:49:37;;;;;;;903.00;849.53;;;8.40;64.30;;;;;;5032817;28;20681;-72
2024/02/26 00:52:03;;;;;;;912.80;858.90;;;8.50;66.90;;;;;;5032648;28;20512;-73
2024/02/26 00:54:28;;;;;;;884.50;833.43;;;8.40;66.50;;;;;;5032811;28;20405;-74
2024/02/26 00:56:54;;;;;;;861.37;812.17;;;8.30;68.60;;;;;;5032732;28;20520;-73
2024/02/26 00:59:19;;;;;;;886.70;835.00;;;8.30;69.90;;;;;;5032709;28;20178;-73
2024/02/26 01:01:45;;;;;;;908.77;856.00;;;8.20;73.00;;;;;;5032410;28;20177;-74
2024/02/26 01:04:11;;;;;;;886.20;834.30;;;8.30;73.30;;;;;;5032057;28;20171;-73
2024/02/26 01:06:37;;;;;;;872.67;822.87;;;8.40;90.20;;;;;;5032376;28;20250;-74
2024/02/26 01:09:02;;;;;;;839.03;790.90;;;8.20;75.40;;;;;;5032384;28;20551;-74
2024/02/26 01:11:29;;;;;;;856.70;808.43;;;8.20;76.20;;;;;;5032240;28;20183;-73
2024/02/26 01:13:56;;;;;;;846.00;798.23;;;8.10;79.40;;;;;;5032423;28;20970;-73
2024/02/26 01:16:23;;;;;;;843.20;796.20;;;8.10;82.80;;;;;;5032365;28;20217;-73
2024/02/26 01:18:48;;;;;;;824.37;778.50;;;8.10;84.80;;;;;;5032138;28;20441;-72
2024/02/26 01:21:14;;;;;;;819.97;774.10;;;8.10;86.20;;;;;;5032162;28;20404;-72
2024/02/26 01:23:40;;;;;;;830.13;783.47;;;8.10;90.40;;;;;;5031521;28;20228;-72
2024/02/26 01:26:05;;;;;;;807.70;762.17;;;8.10;91.20;;;;;;5032026;28;20214;-73
2024/02/26 01:28:31;;;;;;;821.53;775.33;;;8.10;90.90;;;;;;5032057;28;20574;-73
2024/02/26 01:30:56;;;;;;;824.90;778.63;;;8.20;92.30;;;;;;5032032;28;20169;-72
2024/02/26 01:33:22;;;;;;;796.27;751.40;;;8.00;93.70;;;;;;5031934;28;20602;-73
2024/02/26 01:35:48;;;;;;;827.20;781.03;;;8.10;94.30;;;;;;5032155;28;20167;-74
2024/02/26 01:38:14;;;;;;;1596.10;915.07;;;8.10;95.50;;;;;;5031934;28;20183;-74
2024/02/26 01:40:39;;;;;;;1583.90;903.20;;;8.10;95.30;;;;;;5032072;28;20176;-73
2024/02/26 01:43:05;;;;;;;1999.90;999.90;;;7.90;96.50;;;;;;5031868;28;20414;-73
2024/02/26 01:45:30;;;;;;;1999.90;999.90;;;8.10;97.80;;;;;;5031923;28;20178;-73
2024/02/26 01:47:57;;;;;;;1999.90;999.90;;;8.10;99.30;;;;;;5031864;28;20220;-73
2024/02/26 01:50:24;;;;;;;1999.90;999.90;;;8.10;99.90;;;;;;5031972;28;20594;-73
2024/02/26 01:52:51;;;;;;;1999.90;999.90;;;8.10;99.90;;;;;;5031884;28;20896;-73
2024/02/26 01:55:18;;;;;;;1999.90;999.90;;;8.10;99.90;;;;;;5031810;28;20405;-73
2024/02/26 01:57:45;;;;;;;1999.90;999.90;;;8.00;99.90;;;;;;5031707;28;20479;-73
2024/02/26 02:00:12;;;;;;;1999.90;999.90;;;8.00;99.90;;;;;;5031882;28;20831;-73
2024/02/26 02:02:39;;;;;;;1999.90;999.90;;;8.00;99.90;;;;;;5033001;28;20420;-73
2024/02/26 02:05:06;;;;;;;1999.90;999.90;;;8.00;99.90;;;;;;5032069;28;20413;-73
2024/02/26 02:07:32;;;;;;;1999.90;999.90;;;8.00;99.90;;;;;;5031249;28;20498;-72
2024/02/26 02:09:58;;;;;;;1999.90;999.90;;;8.00;99.90;;;;;;5032219;28;20954;-74
2024/02/26 02:12:24;;;;;;;1999.90;999.90;;;8.00;99.90;;;;;;5034410;28;20165;-74
2024/02/26 02:14:50;;;;;;;1999.90;999.90;;;7.90;99.90;;;;;;5032844;28;20476;-74
2024/02/26 02:17:16;;;;;;;1999.90;999.90;;;7.90;99.90;;;;;;5033543;28;20489;-73
2024/02/26 02:19:41;;;;;;;1999.90;999.90;;;8.00;99.90;;;;;;5033807;28;20699;-75
2024/02/26 02:22:07;;;;;;;1999.90;999.90;;;8.00;99.90;;;;;;5031903;28;20177;-73
2024/02/26 02:24:33;;;;;;;1999.90;999.90;;;7.90;99.90;;;;;;5031213;28;20177;-73
2024/02/26 02:26:59;;;;;;;1999.90;999.90;;;8.00;99.90;;;;;;5032385;28;20188;-74
2024/02/26 02:29:24;;;;;;;1999.90;999.90;;;7.90;99.90;;;;;;5032151;28;20222;-73
2024/02/26 02:31:50;;;;;;;1999.90;999.90;;;7.90;99.90;;;;;;5031370;28;20436;-73
2024/02/26 02:34:16;;;;;;;1999.90;999.90;;;;;;;;;;5031471;28;20170;-73
2024/02/26 02:36:54;;;;;;;1999.90;999.90;;;7.70;99.90;;;;;;5031409;28;20484;-73
2024/02/26 02:39:21;;;;;;;1999.90;999.90;;;7.80;99.90;;;;;;5031416;28;20474;-73
2024/02/26 02:41:46;;;;;;;1999.90;999.90;;;7.80;99.90;;;;;;5032396;28;20424;-72
2024/02/26 02:44:12;;;;;;;1999.90;999.90;;;7.80;99.90;;;;;;5035229;28;20401;-73
2024/02/26 02:46:38;;;;;;;1999.90;999.90;;;8.30;99.90;;;;;;5035270;28;20270;-73
2024/02/26 02:49:07;;;;;;;1999.90;999.90;;;7.90;99.90;;;;;;5035205;28;20216;-73
2024/02/26 02:51:33;;;;;;;1999.90;999.90;;;7.50;99.90;;;;;;5034779;28;20838;-73
2024/02/26 02:53:58;;;;;;;1999.90;999.90;;;8.00;99.90;;;;;;5036764;28;20504;-75
2024/02/26 02:56:24;;;;;;;1999.90;999.90;;;7.70;99.90;;;;;;5038592;28;20166;-75
2024/02/26 02:58:49;;;;;;;1999.90;999.90;;;7.70;99.90;;;;;;5038161;28;20228;-74
2024/02/26 03:01:15;;;;;;;1999.90;999.90;;;7.70;99.90;;;;;;5035167;28;20219;-73
2024/02/26 03:03:41;;;;;;;1999.90;999.90;;;7.70;99.90;;;;;;5034026;28;20178;-74
2024/02/26 03:06:06;;;;;;;1999.90;999.90;;;7.70;99.90;;;;;;5034248;28;20180;-72
2024/02/26 03:08:32;;;;;;;1999.90;999.90;;;7.70;99.90;;;;;;5033454;28;20205;-73
2024/02/26 03:10:59;;;;;;;1999.90;999.90;;;7.80;99.90;;;;;;5032628;28;20169;-75
2024/02/26 03:13:24;;;;;;;1999.90;999.90;;;7.70;99.90;;;;;;5033844;28;20162;-72
2024/02/26 03:15:50;;;;;;;1999.90;999.90;;;7.80;99.90;;;;;;5035967;28;20479;-73
2024/02/26 03:18:15;;;;;;;1999.90;999.90;;;7.80;99.90;;;;;;5036555;28;20185;-72
2024/02/26 03:20:41;;;;;;;1999.90;999.90;;;7.80;99.90;;;;;;5034459;28;20231;-72
2024/02/26 03:23:09;;;;;;;1999.90;999.90;;;7.80;99.90;;;;;;5034091;28;20647;-71
2024/02/26 03:25:35;;;;;;;1999.90;999.90;;;7.80;99.90;;;;;;5034384;28;20177;-72
2024/02/26 03:28:00;;;;;;;1999.90;999.90;;;7.80;99.90;;;;;;5035832;28;20485;-73
2024/02/26 03:30:26;;;;;;;1999.90;999.90;;;7.70;99.90;;;;;;5036545;28;20245;-73
2024/02/26 03:32:51;;;;;;;1999.90;999.90;;;7.70;99.90;;;;;;5033666;28;20165;-72
2024/02/26 03:35:17;;;;;;;1999.90;999.90;;;7.80;99.90;;;;;;5033731;28;20204;-72
2024/02/26 03:37:43;;;;;;;1999.90;999.90;;;7.80;99.90;;;;;;5033689;28;20197;-73
2024/02/26 03:40:09;;;;;;;1999.90;999.90;;;7.80;99.90;;;;;;5034026;28;20664;-73
2024/02/26 03:42:34;;;;;;;1999.90;999.90;;;7.80;99.90;;;;;;5034151;28;20174;-72
2024/02/26 03:45:00;;;;;;;1999.90;999.90;;;7.80;99.90;;;;;;5034168;28;20915;-73
2024/02/26 03:47:25;;;;;;;1999.90;999.90;;;7.80;99.90;;;;;;5034078;28;20194;-73
2024/02/26 03:49:51;;;;;;;1999.90;999.90;;;7.80;99.90;;;;;;5034020;28;20859;-73
2024/02/26 03:52:16;;;;;;;1999.90;999.90;;;7.80;99.90;;;;;;5033966;28;20350;-72
2024/02/26 03:54:42;;;;;;;1999.90;999.90;;;7.80;99.90;;;;;;5033965;28;20163;-72
2024/02/26 03:57:07;;;;;;;1999.90;999.90;;;7.80;99.90;;;;;;5033909;28;20188;-75
2024/02/26 03:59:33;;;;;;;1999.90;999.90;;;7.90;99.90;;;;;;5038496;28;20185;-74
2024/02/26 04:02:01;;;;;;;1999.90;999.90;;;7.80;99.90;;;;;;5034792;28;20181;-72
2024/02/26 04:04:27;;;;;;;1999.90;999.90;;;7.80;99.90;;;;;;5033758;28;20246;-72
2024/02/26 04:06:52;;;;;;;1999.90;999.90;;;7.90;99.90;;;;;;5037233;28;20419;-74
2024/02/26 04:09:18;;;;;;;1999.90;999.90;;;7.80;99.90;;;;;;5034618;28;20215;-72
2024/02/26 04:11:44;;;;;;;1999.90;999.90;;;7.90;99.90;;;;;;5033428;28;20246;-71
2024/02/26 04:14:11;;;;;;;1999.90;999.90;;;7.90;99.90;;;;;;5033593;28;20204;-71
2024/02/26 04:16:37;;;;;;;1999.90;999.90;;;7.90;99.90;;;;;;5033491;28;20183;-72
2024/02/26 04:19:02;;;;;;;1999.90;999.90;;;7.90;99.90;;;;;;5033478;28;20416;-73
2024/02/26 04:21:28;;;;;;;1999.90;999.90;;;8.00;99.90;;;;;;5033022;28;20212;-72
2024/02/26 04:23:56;;;;;;;1999.90;999.90;;;8.00;99.90;;;;;;5033073;28;20212;-72
2024/02/26 04:26:22;;;;;;;1999.90;999.90;;;7.90;99.90;;;;;;5033439;28;20855;-72
2024/02/26 04:28:47;;;;;;;1999.90;999.90;;;7.80;99.90;;;;;;5033097;28;20554;-72
2024/02/26 04:31:13;;;;;;;1999.90;999.90;;;7.90;99.90;;;;;;5033062;28;20177;-72
2024/02/26 04:33:39;;;;;;;1999.90;999.90;;;7.80;99.90;;;;;;5036425;28;20174;-73
2024/02/26 04:36:04;;;;;;;1999.90;999.90;;;7.80;99.90;;;;;;5041562;28;20167;-74
2024/02/26 04:38:30;;;;;;;1999.90;999.90;;;7.80;99.90;;;;;;5042562;28;20259;-74
2024/02/26 04:40:56;;;;;;;1999.90;999.90;;;7.80;99.90;;;;;;5041465;28;20775;-74
2024/02/26 04:43:21;;;;;;;1999.90;999.90;;;7.70;99.90;;;;;;5042975;28;20220;-74
2024/02/26 04:45:47;;;;;;;1999.90;999.90;;;7.70;99.90;;;;;;5044683;28;20169;-72
2024/02/26 04:48:13;;;;;;;1999.90;999.90;;;7.90;99.90;;;;;;5043702;28;20247;-73
2024/02/26 04:50:38;;;;;;;1999.90;999.90;;;7.60;99.90;;;;;;5042192;28;20466;-73
2024/02/26 04:53:04;;;;;;;1999.90;999.90;;;7.60;99.90;;;;;;5032495;28;20169;-72
2024/02/26 04:55:30;;;;;;;1999.90;999.90;;;7.70;99.90;;;;;;5032798;28;20701;-72
2024/02/26 04:57:55;;;;;;;1999.90;999.90;;;7.60;99.90;;;;;;5032780;28;20581;-72
2024/02/26 05:00:21;;;;;;;1999.90;999.90;;;7.60;99.90;;;;;;5032697;28;20179;-72
2024/02/26 05:02:46;;;;;;;1999.90;999.90;;;7.60;99.90;;;;;;5032403;28;20177;-73
2024/02/26 05:05:12;;;;;;;1999.90;999.90;;;7.50;99.90;;;;;;5032079;28;20181;-72
2024/02/26 05:07:45;;;;;;;1999.90;999.90;;;7.60;99.90;;;;;;5032305;28;20303;-72
2024/02/26 05:10:10;;;;;;;1999.90;999.90;;;7.60;99.90;;;;;;5032243;28;20465;-72
2024/02/26 05:12:36;;;;;;;1999.90;999.90;;;7.60;99.90;;;;;;5031625;28;20498;-72
2024/02/26 05:15:03;;;;;;;1999.90;999.90;;;7.70;99.90;;;;;;5032428;28;20173;-72
2024/02/26 05:17:28;;;;;;;1999.90;999.90;;;7.50;99.90;;;;;;5014690;28;20193;-72
2024/02/26 05:19:54;;;;;;;1999.90;999.90;;;7.60;99.90;;;;;;5032256;28;20960;-73
2024/02/26 05:22:20;;;;;;;1999.90;999.90;;;7.60;99.90;;;;;;5032075;28;20592;-72
2024/02/26 05:24:45;;;;;;;1999.90;999.90;;;7.60;99.90;;;;;;5032217;28;20180;-72
2024/02/26 05:27:12;;;;;;;1999.90;999.90;;;7.50;99.90;;;;;;5032172;28;20557;-72
2024/02/26 05:29:37;;;;;;;1999.90;999.90;;;7.60;99.90;;;;;;5032207;28;20192;-72
2024/02/26 05:32:04;;;;;;;1999.90;999.90;;;7.50;99.90;;;;;;5032005;28;20411;-71
2024/02/26 05:34:30;;;;;;;1999.90;999.90;;;7.50;99.90;;;;;;5031962;28;20645;-71
2024/02/26 05:36:56;;;;;;;1999.90;999.90;;;7.50;99.90;;;;;;5031928;28;20419;-73
2024/02/26 05:39:21;;;;;;;1999.90;999.90;;;7.40;99.90;;;;;;5032109;28;20192;-71
2024/02/26 05:41:47;;;;;;;1999.90;999.90;;;7.40;99.90;;;;;;5031124;28;20180;-71
2024/02/26 05:44:13;;;;;;;1999.90;999.90;;;7.40;99.90;;;;;;5032025;28;20197;-71
2024/02/26 05:46:38;;;;;;;1999.90;999.90;;;7.40;99.90;;;;;;5031891;28;20173;-72
2024/02/26 05:49:04;;;;;;;1999.90;999.90;;;7.40;99.90;;;;;;5031849;28;20459;-73
2024/02/26 05:51:29;;;;;;;1999.90;999.90;;;7.40;99.90;;;;;;5033378;28;20526;-75
2024/02/26 05:53:55;;;;;;;1999.90;999.90;;;7.30;99.90;;;;;;5034576;28;20176;-75
2024/02/26 05:56:22;;;;;;;1999.90;999.90;;;7.30;99.90;;;;;;5035213;28;20173;-75
2024/02/26 05:58:48;;;;;;;1999.90;999.90;;;7.40;99.90;;;;;;5034857;28;20200;-75
2024/02/26 06:01:15;;;;;;;1999.90;999.90;;;7.30;99.90;;;;;;5032278;28;20906;-73
2024/02/26 06:03:40;;;;;;;1999.90;999.90;;;6.80;99.90;;;;;;5034232;28;20586;-75
2024/02/26 06:06:06;;;;;;;1999.90;999.90;;;7.30;99.90;;;;;;5032676;28;20412;-72
2024/02/26 06:08:31;;;;;;;1999.90;999.90;;;7.30;99.90;;;;;;5031495;28;20734;-71
2024/02/26 06:10:57;;;;;;;1999.90;999.90;;;7.30;99.90;;;;;;5083918;22;20718;-69
2024/02/26 06:13:23;;;;;;;1999.90;999.90;;;7.30;99.90;;;;;;5051421;28;20159;-69
2024/02/26 06:15:48;;;;;;;1999.90;999.90;;;7.30;99.90;;;;;;5051087;28;20164;-69
2024/02/26 06:18:14;;;;;;;1999.90;999.90;;;7.30;99.90;;;;;;5055280;28;20159;-69
2024/02/26 06:20:39;;;;;;;1999.90;999.90;;;7.40;99.90;;;;;;5055535;28;20181;-70
2024/02/26 06:23:05;;;;;;;1999.90;999.90;;;7.40;99.90;;;;;;5055221;28;20168;-69
2024/02/26 06:25:31;;;;;;;1999.90;999.90;;;7.40;99.90;;;;;;5055777;28;20164;-68
2024/02/26 06:27:57;;;;;;;1999.90;999.90;;;9.70;99.90;;;;;;5055612;28;20183;-68
2024/02/26 06:30:22;;;;;;;1999.90;999.90;;;7.50;99.90;;;;;;5055445;28;20562;-69
2024/02/26 06:32:48;;;;;;;1999.90;999.90;;;7.30;99.90;;;;;;5054507;28;20410;-69
2024/02/26 06:35:13;;;;;;;1999.90;999.90;;;7.20;99.90;;;;;;5055441;28;20254;-69
2024/02/26 06:37:39;;;;;;;1999.90;999.90;;;7.20;99.90;;;;;;5055080;28;20267;-69
2024/02/26 06:40:09;;;;;;;1999.90;999.90;;;7.20;99.90;;;;;;5055268;28;20275;-68
2024/02/26 06:42:35;;;;;;;1999.90;999.90;;;7.10;99.90;;;;;;5055104;28;20215;-68
2024/02/26 06:45:01;;;;;;;1999.90;999.90;;;7.10;99.90;;;;;;5055242;28;20406;-69
2024/02/26 06:47:27;;;;;;;1999.90;999.90;;;7.20;99.90;;;;;;5055213;28;20171;-68
2024/02/26 06:49:52;;;;;;;1999.90;999.90;;;7.00;99.90;;;;;;5055141;28;20463;-69
2024/02/26 06:52:18;;;;;;;1999.90;999.90;;;7.00;99.90;;;;;;5055175;28;20586;-68
2024/02/26 06:54:44;;;;;;;1999.90;999.90;;;7.00;99.90;;;;;;5054747;28;20167;-69
2024/02/26 06:57:10;;;;;;;1999.90;999.90;;;7.00;99.90;;;;;;5055158;28;20199;-68
2024/02/26 06:59:35;;;;;;;1999.90;999.90;;;7.00;99.90;;;;;;5054870;28;20798;-68
2024/02/26 07:02:01;;;;;;;620.40;587.33;;;7.00;99.90;;;;;;5054669;28;20251;-69
2024/02/26 07:04:27;;;;;;;1999.90;999.90;;;7.00;99.90;;;;;;5054953;28;20171;-69
2024/02/26 07:06:53;;;;;;;1999.90;999.90;;;;;;;;;;5037049;28;20176;-69
2024/02/26 07:09:18;;;;;;;1999.90;999.90;;;7.00;99.90;;;;;;5054738;28;20200;-69
2024/02/26 07:11:44;;;;;;;1532.67;855.80;;;7.00;99.90;;;;;;5054460;28;20454;-69
2024/02/26 07:14:10;;;;;;;578.20;548.97;;;7.00;99.90;;;;;;5054405;28;20168;-69
2024/02/26 07:16:36;;;;;;;1140.77;780.43;;;7.00;99.90;;;;;;5054575;28;20262;-67
2024/02/26 07:19:03;;;;;;;1999.90;999.90;;;7.10;99.90;;;;;;5054588;28;20442;-67
2024/02/26 07:21:29;;;;;;;556.87;528.10;;;7.10;99.90;;;;;;5054307;28;20694;-68
2024/02/26 07:23:54;;;;;;;639.53;606.23;;;7.00;99.90;;;;;;5036605;28;20965;-68
2024/02/26 07:26:20;;;;;;;698.43;657.83;;;7.00;99.90;;;;;;5054566;28;20901;-68
2024/02/26 07:28:46;;;;;;;645.47;610.60;;;7.10;99.90;;;;;;5053642;28;20195;-67
2024/02/26 07:31:12;;;;;;;638.03;605.00;;;7.10;99.90;;;;;;5053522;28;20431;-68
2024/02/26 07:33:38;;;;;;;607.30;575.60;;;7.00;99.90;;;;;;5053293;28;20402;-68
2024/02/26 07:36:04;;;;;;;667.13;631.10;;;7.10;99.90;;;;;;5053793;28;20399;-67
2024/02/26 07:38:30;;;;;;;669.47;632.50;;;7.10;99.90;;;;;;5053970;28;20251;-69
2024/02/26 07:40:56;;;;;;;870.97;819.23;;;7.10;99.90;;;;;;5054105;28;20473;-67
2024/02/26 07:43:22;;;;;;;688.43;651.70;;;7.10;99.90;;;;;;5053597;28;20174;-68
2024/02/26 07:45:47;;;;;;;858.33;804.63;;;7.10;99.90;;;;;;5053858;28;20496;-68
2024/02/26 07:48:13;;;;;;;839.30;788.77;;;7.00;99.90;;;;;;5054280;28;20207;-67
2024/02/26 07:50:40;;;;;;;838.23;786.90;;;7.00;99.90;;;;;;5053947;28;20237;-67
2024/02/26 07:53:06;;;;;;;729.53;691.00;;;6.90;99.90;;;;;;5053862;28;20918;-69
2024/02/26 07:55:31;;;;;;;771.90;729.00;;;7.00;99.90;;;;;;5054048;28;20406;-67
2024/02/26 07:57:57;;;;;;;915.53;860.33;;;7.00;99.90;;;;;;5053917;28;20599;-67
2024/02/26 08:00:23;;;;;;;944.03;876.37;;;7.00;99.90;;;;;;5053574;28;20202;-68
2024/02/26 08:02:48;;;;;;;700.37;663.13;;;7.00;99.90;;;;;;5053644;28;20638;-68
2024/02/26 08:05:14;;;;;;;817.57;770.97;;;7.00;99.90;;;;;;5053845;28;20173;-68
2024/02/26 08:07:39;;;;;;;735.93;696.23;;;6.90;99.90;;;;;;5053751;28;20177;-67
2024/02/26 08:10:06;;;;;;;746.60;706.00;;;7.00;99.90;;;;;;5053197;28;20239;-68
2024/02/26 08:12:32;;;;;;;682.93;646.67;;;7.00;99.90;;;;;;5053025;28;20214;-68
2024/02/26 08:14:58;;;;;;;929.33;868.87;;;7.00;99.90;;;;;;5035664;28;21007;-68
2024/02/26 08:17:23;;;;;;;844.10;795.60;;;7.20;99.90;;;;;;5053632;28;20172;-67
2024/02/26 08:19:49;;;;;;;785.27;742.30;;;7.10;99.90;;;;;;5035711;28;20521;-69
2024/02/26 08:22:17;;;;;;;708.43;670.20;;;7.20;99.90;;;;;;5052743;28;20706;-69
2024/02/26 08:24:43;;;;;;;721.83;683.20;;;7.20;99.90;;;;;;5053532;28;20179;-68
2024/02/26 08:27:09;;;;;;;732.77;692.80;;;7.20;99.90;;;;;;5053390;28;20402;-69
2024/02/26 08:29:35;;;;;;;975.67;905.00;;;;;;;;;;5053107;28;20215;-68
2024/02/26 08:32:01;;;;;;;838.70;788.30;;;7.20;99.90;;;;;;5053086;28;20669;-69
2024/02/26 08:34:26;;;;;;;740.07;701.17;;;7.20;99.90;;;;;;5053328;28;20406;-68
2024/02/26 08:36:52;;;;;;;859.97;810.23;;;7.20;99.90;;;;;;5053283;28;20432;-68
2024/02/26 08:39:20;;;;;;;741.73;701.73;;;7.20;99.90;;;;;;5052455;28;20172;-69
2024/02/26 08:41:46;;;;;;;955.30;894.10;;;7.20;99.90;;;;;;5052833;28;20191;-69
2024/02/26 08:44:12;;;;;;;737.23;696.73;;;7.30;99.90;;;;;;5052621;28;20894;-70
2024/02/26 08:46:37;;;;;;;1008.63;944.10;;;7.20;99.90;;;;;;5052949;28;20175;-69
2024/02/26 08:49:03;;;;;;;793.30;749.23;;;;;;;;;;5052748;28;20196;-68
2024/02/26 08:51:29;;;;;;;712.00;674.30;;;7.20;99.90;;;;;;5052658;28;20187;-69
2024/02/26 08:53:55;;;;;;;742.50;702.33;;;7.20;99.90;;;;;;5052854;28;20549;-69
2024/02/26 08:56:21;;;;;;;777.47;734.10;;;;;;;;;;5052880;28;20195;-68
2024/02/26 08:58:48;;;;;;;749.57;707.80;;;7.20;99.90;;;;;;5052687;28;20179;-70
2024/02/26 09:01:17;;;;;;;787.00;742.93;;;7.10;99.90;;;;;;5052646;28;20448;-68
2024/02/26 09:03:43;;;;;;;748.07;707.67;;;7.30;99.90;;;;;;5052475;28;20406;-69
2024/02/26 09:06:09;;;;;;;732.90;692.17;;;7.20;99.90;;;;;;5052581;28;20939;-69
2024/02/26 09:08:36;;;;;;;770.70;729.17;;;7.30;99.90;;;;;;5052478;28;20196;-70
2024/02/26 09:11:03;;;;;;;811.20;765.60;;;7.30;99.90;;;;;;5052114;28;20449;-69
2024/02/26 09:13:28;;;;;;;748.27;705.83;;;7.30;99.90;;;;;;5052430;28;20414;-69
2024/02/26 09:15:54;;;;;;;833.40;785.07;;;7.30;99.90;;;;;;5052514;28;20829;-68
2024/02/26 09:18:20;;;;;;;903.87;849.77;;;7.30;99.90;;;;;;5052127;28;20187;-70
2024/02/26 09:20:46;;;;;;;848.27;799.27;;;7.30;99.90;;;;;;5047096;28;20537;-70
2024/02/26 09:23:11;;;;;;;847.57;798.83;;;7.30;99.90;;;;;;5050995;28;20233;-70
2024/02/26 09:25:37;;;;;;;807.67;761.83;;;7.40;99.90;;;;;;5051709;28;20172;-70
2024/02/26 09:28:03;;;;;;;794.83;749.53;;;6.70;99.90;;;;;;5051054;28;20172;-70
2024/02/26 09:30:29;;;;;;;839.60;791.20;;;7.40;99.90;;;;;;5051970;28;20317;-70
2024/02/26 09:32:54;;;;;;;1105.67;999.90;;;7.40;99.90;;;;;;5051340;28;20576;-70
2024/02/26 09:35:21;;;;;;;971.97;909.13;;;7.40;99.90;;;;;;5046078;28;20667;-70
2024/02/26 09:37:48;;;;;;;1153.50;999.90;;;7.50;99.90;;;;;;5058436;28;20171;-70
2024/02/26 09:40:14;;;;;;;931.57;873.10;;;7.50;99.90;;;;;;5061785;28;20534;-71
2024/02/26 09:42:45;;;;;;;878.87;826.83;;;7.40;99.90;;;;;;5032984;28;20506;-69
2024/02/26 09:45:24;;;;;;;1091.77;999.90;;;7.60;18.10;;;;;;5055790;28;20414;-70
2024/02/26 09:47:50;;;;;;;898.87;845.60;;;7.50;10.90;;;;;;5053516;28;20788;-70
2024/02/26 09:50:17;;;;;;;915.30;860.57;;;7.50;19.90;;;;;;5032648;28;21014;-70
2024/02/26 09:52:43;;;;;;;932.43;877.60;;;7.70;18.50;;;;;;5050884;28;20563;-70
2024/02/26 09:55:19;;;;;;;938.80;882.57;;;7.60;60.40;;;;;;5049028;28;20490;-69
2024/02/26 09:57:46;;;;;;;1017.97;954.53;;;7.90;42.10;;;;;;5056570;28;20164;-69
2024/02/26 10:00:19;;;;;;;1033.63;969.07;;;7.60;1.00;;;;;;5051474;28;20431;-70
2024/02/26 10:02:47;;;;;;;951.77;894.53;;;7.60;1.00;;;;;;5051441;28;20433;-70
2024/02/26 10:05:17;;;;;;;922.67;868.27;;;7.70;1.00;;;;;;5054239;28;20424;-70
2024/02/26 10:07:44;;;;;;;1030.30;963.70;;;7.60;1.00;;;;;;5055907;28;20501;-69
2024/02/26 10:10:10;;;;;;;1162.20;999.90;;;7.70;1.00;;;;;;5051124;28;20469;-68
2024/02/26 10:12:35;;;;;;;938.17;882.27;;;7.60;1.00;;;;;;5058250;28;20515;-69
2024/02/26 10:15:01;;;;;;;1100.30;999.90;;;7.70;1.00;;;;;;5051205;28;20546;-70
2024/02/26 10:17:28;;;;;;;954.50;898.13;;;7.70;1.00;;;;;;5051288;28;20268;-70
2024/02/26 10:19:56;;;;;;;959.17;901.17;;;7.90;97.20;;;;;;5062041;28;20566;-69
2024/02/26 10:22:22;;;;;;;948.73;891.93;;;7.90;99.90;;;;;;5062997;28;20464;-70
2024/02/26 10:24:48;;;;;;;948.07;890.20;;;7.90;99.90;;;;;;5052939;28;20755;-68
2024/02/26 10:27:15;;;;;;;1040.57;973.23;;;8.00;99.90;;;;;;5056175;28;20423;-70
2024/02/26 10:29:42;;;;;;;988.20;927.03;;;8.10;3.00;;;;;;5060599;28;20328;-68
2024/02/26 10:32:09;;;;;;;1079.37;999.90;;;8.10;1.00;;;;;;5053707;28;20827;-69
2024/02/26 10:34:37;;;;;;;947.00;889.30;;;8.20;1.00;;;;;;5054346;28;20418;-69
2024/02/26 10:37:04;;;;;;;987.73;926.77;;;8.30;1.00;;;;;;5056275;28;20461;-70
2024/02/26 10:39:30;;;;;;;992.13;930.97;;;8.20;1.00;;;;;;5051130;28;20834;-69
2024/02/26 10:41:55;;;;;;;1009.50;946.57;;;8.60;1.00;;;;;;5050036;28;20907;-71
2024/02/26 10:44:21;;;;;;;985.93;925.03;;;8.40;1.00;;;;;;5051176;28;20181;-71
2024/02/26 10:46:51;;;;;;;989.73;928.03;;;8.30;1.00;;;;;;5033682;28;20262;-71
2024/02/26 10:49:19;;;;;;;1121.13;999.90;;;8.50;48.10;;;;;;5050539;28;20197;-71
2024/02/26 10:51:49;;;;;;;1041.07;974.53;;;8.80;1.10;;;;;;5050295;28;20432;-71
2024/02/26 10:54:16;;;;;;;982.70;921.50;;;8.50;1.00;;;;;;5050925;28;20414;-70
2024/02/26 10:56:43;;;;;;;1038.63;973.43;;;8.60;1.00;;;;;;5050543;28;20495;-69
2024/02/26 10:59:10;;;;;;;1046.33;976.30;;;8.50;99.90;;;;;;5050904;28;20406;-72
2024/02/26 11:01:41;;;;;;;1058.90;990.80;;;;;;;;;;5050254;28;20463;-71
2024/02/26 11:04:08;;;;;;;1044.73;977.80;;;8.90;99.90;;;;;;5047045;28;20891;-71
2024/02/26 11:06:35;;;;;;;1123.37;999.90;;;9.10;99.90;;;;;;5054865;28;20433;-71
2024/02/26 11:09:02;;;;;;;1153.93;999.90;;;9.30;99.90;;;;;;5054218;28;20470;-69
2024/02/26 11:11:29;;;;;;;1075.23;999.90;;;9.30;99.90;;;;;;5053323;28;20528;-72
2024/02/26 11:13:56;;;;;;;1072.07;995.27;;;9.30;99.90;;;;;;5053567;28;20423;-70
2024/02/26 11:16:22;;;;;;;1048.20;980.23;;;9.30;99.90;;;;;;5036475;28;20417;-68
2024/02/26 11:18:49;;;;;;;1140.33;999.90;;;9.50;99.90;;;;;;5053826;28;20440;-69
2024/02/26 11:21:27;;;;;;;1062.07;995.10;;;9.30;99.90;;;;;;5053687;28;20432;-69
2024/02/26 11:23:54;;;;;;;1035.30;970.87;;;9.30;99.90;;;;;;5054333;28;20776;-72
2024/02/26 11:26:21;;;;;;;1076.20;999.90;;;9.20;99.90;;;;;;5054048;28;20420;-70
2024/02/26 11:28:48;;;;;;;1027.67;963.50;;;9.30;99.90;;;;;;5053862;28;20446;-70
2024/02/26 11:31:14;;;;;;;1140.70;999.90;;;9.20;99.90;;;;;;5053732;28;21021;-72
2024/02/26 11:33:40;;;;;;;1046.07;978.40;;;9.20;99.90;;;;;;5036682;28;20417;-73
2024/02/26 11:36:12;;;;;;;1030.93;964.53;;;9.20;99.90;;;;;;5054574;28;20432;-70
2024/02/26 11:38:38;;;;;;;1114.00;999.90;;;9.20;99.90;;;;;;5054202;28;20463;-70
2024/02/26 11:41:05;;;;;;;950.10;892.53;;;8.80;99.90;;;;;;5053316;28;20430;-73
2024/02/26 11:43:50;;;;;;;957.03;899.23;;;8.90;99.90;;;;;;5053909;28;20780;-71
2024/02/26 11:46:30;;;;;;;1093.60;999.90;;;9.00;99.90;;;;;;5046932;28;20412;-71
2024/02/26 11:49:00;;;;;;;1130.17;999.90;;;8.90;99.90;;;;;;5053700;28;20453;-71
2024/02/26 11:51:28;;;;;;;961.10;903.03;;;8.90;99.90;;;;;;5053230;28;20431;-71
2024/02/26 11:53:54;;;;;;;991.67;930.70;;;8.90;99.90;;;;;;5052907;28;20405;-69
2024/02/26 11:56:23;;;;;;;988.60;929.10;;;8.90;99.90;;;;;;5053493;28;20408;-69
2024/02/26 11:58:53;;;;;;;940.73;884.47;;;8.90;99.90;;;;;;5053651;28;20413;-71
2024/02/26 12:01:37;;;;;;;989.33;928.10;;;8.80;99.90;;;;;;5052835;28;20433;-69
2024/02/26 12:04:29;;;;;;;974.03;915.30;;;9.00;99.90;;;;;;5052584;28;20440;-71
2024/02/26 12:07:01;;;;;;;933.17;879.87;;;8.90;99.90;;;;;;5052375;28;21225;-72
2024/02/26 12:09:34;;;;;;;934.10;878.20;;;8.90;99.90;;;;;;5052492;28;20482;-71